DW4998 Weather Reports


time (UTC)temp
C
wind
direction
speed
KPH
gust
KPH
rain 1hr
cm
rain 24hr
cm
rain mn
cm
humidity
%
barometer
mb
20191015115519 18 180 1.6 8.0 0.00 0.00 0.00 75 1005.8
20191015114519 18 180 1.6 11.3 0.00 0.00 0.00 75 1005.6
20191015113520 18 180 3.2 14.5 0.00 0.00 0.00 74 1005.9
20191015112519 18 180 6.4 16.1 0.00 0.00 0.00 74 1005.9
20191015111519 18 158 1.6 9.7 0.00 0.00 0.00 75 1005.9
20191015110519 18 0.0 3.2 0.00 0.00 0.00 76 1005.8
20191015105519 17 158 3.2 8.0 0.00 0.00 0.00 77 1005.8
20191015104516 17 0.0 1.6 0.00 0.00 0.00 78 1005.8
20191015103519 17 158 1.6 6.4 0.00 0.00 0.00 78 1005.9
20191015102519 17 158 3.2 9.7 0.00 0.00 0.00 78 1006.0
20191015101519 17 158 3.2 11.3 0.00 0.00 0.00 78 1006.1
20191015100519 17 158 3.2 11.3 0.00 0.00 0.00 78 1006.1
20191015095516 17 158 4.8 11.3 0.00 0.00 0.00 78 1006.2
20191015094519 17 0.0 1.6 0.00 0.00 0.00 78 1006.0
20191015093519 17 158 1.6 8.0 0.00 0.00 0.00 79 1006.0
20191015092519 17 158 1.6 8.0 0.00 0.00 0.00 80 1005.7
20191015091519 16 0.0 6.4 0.00 0.00 0.00 82 1005.5
20191015090519 16 0.0 1.6 0.00 0.00 0.00 83 1005.5
20191015085519 16 158 6.4 14.5 0.00 0.00 0.00 83 1005.4
20191015084516 15 135 3.2 9.7 0.00 0.00 0.00 84 1005.4
20191015083519 15 158 3.2 11.3 0.00 0.00 0.00 85 1005.3
20191015082519 15 158 3.2 11.3 0.00 0.00 0.00 85 1005.1
20191015081519 15 113 1.6 6.4 0.00 0.00 0.00 85 1005.0
20191015080519 15 113 1.6 6.4 0.00 0.00 0.00 85 1004.8
20191015075519 15 90 4.8 11.3 0.00 0.00 0.00 85 1004.6
20191015074519 15 90 1.6 4.8 0.00 0.00 0.00 88 1004.1
20191015073517 14 90 1.6 4.8 0.00 0.00 0.00 91 1004.0
20191015072519 13 0.0 0.0 0.00 0.00 0.00 91 1003.6
20191015071519 13 0.0 3.2 0.00 0.00 0.00 91 1003.9
20191015070519 13 0.0 1.6 0.00 0.00 0.00 91 1003.9
20191015065519 12 0.0 1.6 0.00 0.00 0.00 91 1004.0
20191015064519 12 90 1.6 6.4 0.00 0.00 0.00 92 1003.8
20191015063519 12 0.0 1.6 0.00 0.00 0.00 92 1004.0
20191015062516 12 0.0 1.6 0.00 0.00 0.00 91 1003.9
20191015061516 12 0.0 0.0 0.00 0.00 0.00 91 1003.9
20191015060519 11 0.0 0.0 0.00 0.00 0.00 91 1003.7
20191015055519 11 0.0 1.6 0.00 0.00 0.00 91 1003.7
20191015054519 11 0.0 0.0 0.00 0.00 0.00 90 1003.8
20191015053519 11 0.0 4.8 0.00 0.00 0.00 90 1003.6
20191015052519 11 0.0 0.0 0.00 0.00 0.00 90 1003.4
20191015051516 11 0.0 1.6 0.00 0.00 0.00 90 1003.3
20191015050519 11 0.0 8.0 0.00 0.00 0.00 89 1003.3
20191015045519 12 90 1.6 6.4 0.00 0.00 0.00 89 1003.1
20191015044519 12 0.0 1.6 0.00 0.00 0.00 89 1003.8
20191015043519 12 0.0 0.0 0.00 0.00 0.00 90 1004.1
20191015042519 12 0.0 1.6 0.00 0.00 0.00 90 1004.2
20191015041519 12 0.0 1.6 0.00 0.00 0.00 90 1004.5
20191015040516 12 0.0 0.0 0.00 0.00 0.00 90 1004.6
20191015035519 12 90 3.2 6.4 0.00 0.00 0.00 90 1004.8
20191015034519 12 0.0 1.6 0.00 0.00 0.00 90 1005.1
20191015033519 12 0.0 1.6 0.00 0.00 0.00 89 1005.1
20191015032519 12 0.0 0.0 0.00 0.00 0.00 89 1005.1
20191015031519 12 0.0 1.6 0.00 0.00 0.00 89 1005.1
20191015030519 12 0.0 0.0 0.00 0.00 0.00 88 1005.2
20191015025516 12 0.0 0.0 0.00 0.00 0.00 88 1005.3
20191015024519 12 0.0 0.0 0.00 0.00 0.00 88 1005.5
20191015023519 12 0.0 0.0 0.00 0.00 0.00 88 1005.6
20191015022519 12 0.0 0.0 0.00 0.00 0.00 88 1005.6
20191015021519 12 0.0 0.0 0.00 0.00 0.00 87 1005.6
20191015020519 12 0.0 0.0 0.00 0.00 0.00 87 1005.6
20191015015519 13 0.0 0.0 0.00 0.00 0.00 87 1005.9
20191015014516 13 0.0 0.0 0.00 0.00 0.00 87 1006.0
20191015013519 13 0.0 0.0 0.00 0.00 0.00 87 1006.0
20191015012519 13 0.0 0.0 0.00 0.00 0.00 87 1006.1
20191015011519 13 0.0 0.0 0.00 0.00 0.00 86 1006.3
20191015010519 13 0.0 0.0 0.00 0.00 0.00 86 1006.6
20191015005519 13 0.0 0.0 0.00 0.00 0.00 86 1006.8
20191015004519 13 0.0 0.0 0.00 0.00 0.00 86 1006.7
20191015003516 13 0.0 1.6 0.00 0.00 0.00 86 1006.9
20191015002519 13 0.0 0.0 0.00 0.00 0.00 86 1007.0
20191015001519 14 0.0 0.0 0.00 0.00 0.00 86 1007.1
20191015000519 14 0.0 0.0 0.00 0.00 0.00 85 1007.1
20191014235519 14 0.0 0.0 0.00 0.00 0.00 85 1007.1
20191014234519 14 0.0 0.0 0.00 0.00 0.00 84 1007.2
20191014233519 14 0.0 0.0 0.00 0.00 0.00 84 1007.4
20191014232516 15 0.0 0.0 0.00 0.00 0.00 83 1007.4
20191014231519 15 0.0 0.0 0.00 0.00 0.00 82 1007.3
20191014230519 15 0.0 0.0 0.00 0.00 0.00 81 1007.4
20191014225519 15 0.0 1.6 0.00 0.00 0.00 81 1007.4
20191014224519 16 0.0 0.0 0.00 0.00 0.00 80 1007.4
20191014223519 16 0.0 0.0 0.00 0.00 0.00 79 1007.4
20191014222519 16 0.0 0.0 0.00 0.00 0.00 79 1007.4
20191014221516 16 0.0 0.0 0.00 0.00 0.00 79 1007.6
20191014220519 16 0.0 1.6 0.00 0.00 0.00 79 1007.5
20191014215519 16 0.0 0.0 0.00 0.00 0.00 79 1007.5
20191014214520 16 90 1.6 4.8 0.00 0.00 0.00 81 1007.6
20191014213517 16 90 1.6 4.8 0.00 0.00 0.00 82 1007.5
20191014212520 16 0.0 1.6 0.00 0.00 0.00 83 1007.5
20191014211520 16 0.0 0.0 0.00 0.00 0.00 82 1007.6
20191014210520 16 0.0 0.0 0.00 0.00 0.00 81 1007.6
20191014205516 16 0.0 0.0 0.00 0.00 0.00 81 1007.6
20191014204520 16 0.0 0.0 0.00 0.00 0.00 80 1007.7
20191014203520 16 0.0 0.0 0.00 0.00 0.00 80 1007.8
20191014202519 16 0.0 0.0 0.00 0.00 0.00 80 1007.7
20191014201520 17 0.0 3.2 0.00 0.00 0.00 80 1007.8
20191014200519 17 0.0 1.6 0.00 0.00 0.00 80 1007.8
20191014195520 17 0.0 0.0 0.00 0.00 0.00 80 1007.6
20191014194519 17 0.0 0.0 0.00 0.00 0.00 80 1007.4
20191014193519 17 0.0 0.0 0.00 0.00 0.00 80 1007.2
20191014192520 17 90 1.6 6.4 0.00 0.00 0.00 81 1007.0
20191014191520 17 0.0 3.2 0.00 0.00 0.00 83 1007.0
20191014190520 17 0.0 1.6 0.00 0.00 0.00 82 1006.7
20191014185520 17 0.0 0.0 0.00 0.00 0.00 81 1006.6
20191014184520 17 0.0 0.0 0.00 0.00 0.00 81 1006.5
20191014183519 17 0.0 0.0 0.00 0.00 0.00 80 1006.5
20191014182519 18 0.0 0.0 0.00 0.00 0.00 80 1006.5
20191014181519 18 0.0 0.0 0.00 0.00 0.00 80 1006.6
20191014180520 18 0.0 1.6 0.00 0.00 0.00 79 1006.7
20191014175520 19 0.0 3.2 0.00 0.00 0.00 78 1006.8
20191014174519 19 0.0 4.8 0.00 0.00 0.00 77 1006.9
20191014173519 20 0.0 1.6 0.00 0.00 0.00 75 1006.9
20191014172519 20 0.0 3.2 0.00 0.00 0.00 74 1006.8
20191014171519 21 0.0 1.6 0.00 0.00 0.00 72 1006.9
20191014170519 22 0.0 0.0 0.00 0.00 0.00 70 1007.1
20191014165519 23 0.0 0.0 0.00 0.00 0.00 66 1007.1
20191014164520 23 0.0 0.0 0.00 0.00 0.00 64 1007.1
20191014163520 24 0.0 0.0 0.00 0.00 0.00 62 1007.0
20191014162519 25 0.0 1.6 0.00 0.00 0.00 59 1007.1
20191014161520 25 0.0 0.0 0.00 0.00 0.00 58 1007.1
20191014160520 25 0.0 0.0 0.00 0.00 0.00 57 1007.1
20191014155520 26 0.0 1.6 0.00 0.00 0.00 55 1007.3
20191014154520 26 0.0 1.6 0.00 0.00 0.00 54 1007.4
20191014153519 26 0.0 1.6 0.00 0.00 0.00 52 1007.4
20191014152519 26 0.0 1.6 0.00 0.00 0.00 52 1007.5
20191014151519 26 0.0 1.6 0.00 0.00 0.00 52 1007.7
20191014150519 26 90 1.6 6.4 0.00 0.00 0.00 51 1007.9
20191014145520 27 0.0 3.2 0.00 0.00 0.00 51 1007.9
20191014144520 27 0.0 3.2 0.00 0.00 0.00 50 1008.1
20191014143520 27 0.0 3.2 0.00 0.00 0.00 50 1008.1
20191014142519 27 0.0 3.2 0.00 0.00 0.00 49 1008.3
20191014141520 27 0.0 1.6 0.00 0.00 0.00 49 1008.6
20191014140519 27 0.0 4.8 0.00 0.00 0.00 48 1008.7
20191014135520 27 0.0 1.6 0.00 0.00 0.00 49 1009.0
20191014134519 27 0.0 3.2 0.00 0.00 0.00 49 1009.0
20191014133519 27 0.0 4.8 0.00 0.00 0.00 50 1009.0
20191014132520 26 0.0 1.6 0.00 0.00 0.00 52 1009.1
20191014131520 26 90 1.6 6.4 0.00 0.00 0.00 51 1009.2
20191014130516 26 0.0 1.6 0.00 0.00 0.00 51 1009.2
20191014125519 26 0.0 1.6 0.00 0.00 0.00 51 1009.6
20191014124519 25 0.0 3.2 0.00 0.00 0.00 51 1009.8
20191014123519 26 0.0 3.2 0.00 0.00 0.00 51 1010.0
20191014122520 26 113 1.6 9.7 0.00 0.00 0.00 50 1010.1
20191014121521 26 0.0 3.2 0.00 0.00 0.00 49 1010.3
20191014120520 26 0.0 1.6 0.00 0.00 0.00 49 1010.5